createdAt,value
2023-04-09T00:02:02.986Z,18.02
2023-04-09T00:04:29.793Z,26.58
2023-04-09T00:06:56.566Z,33.55
2023-04-09T00:09:23.296Z,21.35
2023-04-09T00:11:49.986Z,21.65
2023-04-09T00:14:16.676Z,27.98
2023-04-09T00:16:43.412Z,24.48
2023-04-09T00:19:11.620Z,19.75
2023-04-09T00:21:38.631Z,17.98
2023-04-09T00:24:05.676Z,17.70
2023-04-09T00:26:32.448Z,17.88
2023-04-09T00:28:59.236Z,20.85
2023-04-09T00:31:25.964Z,19.67
2023-04-09T00:33:52.690Z,18.20
2023-04-09T00:36:19.635Z,19.60
2023-04-09T00:38:47.917Z,20.52
2023-04-09T00:41:14.623Z,18.27
2023-04-09T00:43:41.399Z,19.58
2023-04-09T00:46:08.234Z,19.80
2023-04-09T00:48:35.008Z,18.60
2023-04-09T00:51:02.092Z,19.10
2023-04-09T00:53:28.977Z,18.60
2023-04-09T00:55:55.778Z,19.45
2023-04-09T00:58:22.558Z,19.73
2023-04-09T01:00:49.283Z,18.05
2023-04-09T01:03:16.462Z,19.45
2023-04-09T01:06:14.255Z,16.70
2023-04-09T01:08:56.173Z,19.17
2023-04-09T01:11:36.078Z,21.13
2023-04-09T01:14:22.238Z,20.67
2023-04-09T01:16:56.007Z,17.27
2023-04-09T01:19:44.330Z,17.50
2023-04-09T01:22:29.078Z,19.98
2023-04-09T01:25:17.657Z,17.15
2023-04-09T01:28:07.614Z,19.75
2023-04-09T01:30:34.870Z,18.40
2023-04-09T01:33:03.526Z,18.90
2023-04-09T01:35:30.657Z,19.92
2023-04-09T01:37:58.225Z,17.10
2023-04-09T01:40:25.311Z,18.58
2023-04-09T01:42:53.543Z,19.10
2023-04-09T01:45:21.155Z,21.80
2023-04-09T01:47:48.087Z,18.52
2023-04-09T01:50:15.344Z,19.70
2023-04-09T01:52:42.374Z,20.25
2023-04-09T01:55:09.285Z,20.45
2023-04-09T01:57:36.274Z,20.95
2023-04-09T02:00:03.814Z,20.90
2023-04-09T02:02:46.488Z,19.65
2023-04-09T02:05:17.164Z,21.30
2023-04-09T02:07:47.406Z,23.02
2023-04-09T02:10:17.233Z,23.23
2023-04-09T02:12:49.952Z,24.88
2023-04-09T02:15:17.901Z,19.30
2023-04-09T02:17:44.695Z,22.13
2023-04-09T02:20:12.153Z,21.63
2023-04-09T02:22:39.343Z,22.90
2023-04-09T02:25:06.946Z,20.58
2023-04-09T02:27:33.748Z,21.48
2023-04-09T02:30:00.571Z,21.60
2023-04-09T02:32:27.217Z,19.92
2023-04-09T02:34:54.004Z,20.00
2023-04-09T02:37:20.798Z,16.90
2023-04-09T02:39:47.550Z,22.17
2023-04-09T02:42:14.466Z,18.23
2023-04-09T02:44:41.249Z,24.13
2023-04-09T02:47:07.966Z,20.40
2023-04-09T02:49:34.757Z,16.52
2023-04-09T02:52:01.520Z,20.17
2023-04-09T02:54:28.312Z,20.10
2023-04-09T02:56:55.093Z,21.08
2023-04-09T02:59:21.782Z,21.98
2023-04-09T03:01:48.583Z,21.77
2023-04-09T03:04:15.821Z,18.73
2023-04-09T03:06:42.646Z,21.83
2023-04-09T03:09:09.331Z,18.58
2023-04-09T03:11:36.246Z,21.08
2023-04-09T03:14:02.924Z,21.35
2023-04-09T03:16:29.674Z,21.10
2023-04-09T03:18:56.539Z,20.63
2023-04-09T03:21:23.297Z,23.92
2023-04-09T03:23:50.105Z,21.38
2023-04-09T03:26:16.834Z,22.42
2023-04-09T03:28:43.537Z,22.80
2023-04-09T03:31:10.355Z,25.50
2023-04-09T03:33:37.149Z,22.90
2023-04-09T03:36:04.140Z,21.15
2023-04-09T03:38:31.096Z,25.85
2023-04-09T03:40:57.872Z,20.33
2023-04-09T03:43:24.606Z,23.13
2023-04-09T03:45:51.391Z,24.95
2023-04-09T03:48:18.314Z,24.58
2023-04-09T03:50:44.951Z,23.92
2023-04-09T03:53:11.617Z,28.73
2023-04-09T03:55:38.509Z,22.83
2023-04-09T03:58:05.322Z,24.90
2023-04-09T04:00:32.081Z,20.65
2023-04-09T04:02:59.149Z,21.85
2023-04-09T04:05:26.338Z,25.85
2023-04-09T04:07:53.402Z,25.77
2023-04-09T04:10:20.274Z,23.70
2023-04-09T04:12:47.134Z,24.15
2023-04-09T04:15:14.036Z,25.40
2023-04-09T04:17:40.931Z,25.60
2023-04-09T04:20:08.380Z,26.42
2023-04-09T04:22:35.749Z,23.95
2023-04-09T04:25:04.342Z,22.17
2023-04-09T04:27:31.073Z,25.17
2023-04-09T04:29:59.936Z,24.52
2023-04-09T04:32:26.987Z,26.23
2023-04-09T04:34:54.076Z,24.45
2023-04-09T04:37:21.337Z,24.50
2023-04-09T04:39:48.030Z,19.85
2023-04-09T04:42:14.806Z,26.13
2023-04-09T04:44:41.438Z,20.30
2023-04-09T04:47:08.152Z,22.73
2023-04-09T04:49:34.803Z,22.58
2023-04-09T04:52:01.551Z,23.98
2023-04-09T04:54:28.341Z,24.10
2023-04-09T04:56:56.171Z,26.73
2023-04-09T04:59:22.983Z,23.90
2023-04-09T05:01:49.997Z,22.10
2023-04-09T05:04:16.685Z,24.70
2023-04-09T05:06:43.362Z,23.70
2023-04-09T05:09:10.081Z,20.73
2023-04-09T05:11:36.849Z,24.42
2023-04-09T05:14:04.713Z,21.55
2023-04-09T05:16:32.115Z,24.00
2023-04-09T05:18:59.978Z,21.73
2023-04-09T05:21:27.585Z,22.25
2023-04-09T05:23:54.763Z,20.70
2023-04-09T05:26:21.710Z,23.60
2023-04-09T05:28:48.694Z,20.10
2023-04-09T05:31:15.909Z,20.63
2023-04-09T05:33:43.170Z,20.27
2023-04-09T05:36:18.508Z,19.92
2023-04-09T05:38:46.634Z,22.05
2023-04-09T05:41:13.540Z,21.00
2023-04-09T05:43:40.993Z,19.45
2023-04-09T05:46:07.913Z,19.15
2023-04-09T05:48:37.424Z,18.27
2023-04-09T05:51:04.216Z,23.27
2023-04-09T05:53:32.108Z,20.85
2023-04-09T05:55:58.963Z,22.98
2023-04-09T05:58:25.982Z,20.25
2023-04-09T06:00:52.689Z,20.02
2023-04-09T06:03:19.795Z,23.95
2023-04-09T06:05:46.780Z,25.10
2023-04-09T06:08:14.150Z,21.98
2023-04-09T06:10:41.522Z,21.38
2023-04-09T06:13:09.470Z,21.13
2023-04-09T06:15:38.729Z,19.83
2023-04-09T06:18:05.521Z,20.55
2023-04-09T06:20:32.480Z,19.70
2023-04-09T06:22:59.214Z,24.15
2023-04-09T06:25:26.062Z,19.00
2023-04-09T06:27:52.834Z,21.83
2023-04-09T06:30:19.586Z,18.75
2023-04-09T06:32:54.464Z,23.23
2023-04-09T06:35:22.412Z,20.42
2023-04-09T06:37:49.156Z,22.02
2023-04-09T06:40:16.165Z,18.13
2023-04-09T06:42:43.170Z,18.65
2023-04-09T06:45:10.539Z,21.50
2023-04-09T06:47:37.346Z,19.30
2023-04-09T06:50:04.914Z,18.73
2023-04-09T06:52:31.719Z,18.80
2023-04-09T06:54:58.440Z,20.02
2023-04-09T06:57:26.279Z,16.27
2023-04-09T06:59:53.010Z,16.80
2023-04-09T07:02:19.921Z,20.80
2023-04-09T07:04:47.862Z,18.05
2023-04-09T07:07:14.669Z,18.60
2023-04-09T07:09:42.056Z,18.00
2023-04-09T07:12:08.758Z,25.45
2023-04-09T07:14:35.516Z,18.85
2023-04-09T07:17:02.245Z,20.00
2023-04-09T07:19:29.092Z,20.17
2023-04-09T07:21:55.979Z,19.15
2023-04-09T07:24:22.789Z,19.25
2023-04-09T07:26:51.989Z,17.98
2023-04-09T07:29:20.751Z,19.30
2023-04-09T07:31:47.685Z,18.38
2023-04-09T07:34:14.872Z,20.55
2023-04-09T07:36:42.925Z,20.55
2023-04-09T07:39:09.765Z,24.52
2023-04-09T07:41:37.518Z,18.63
2023-04-09T07:44:06.121Z,21.98
2023-04-09T07:46:32.920Z,19.88
2023-04-09T07:48:59.955Z,21.98
2023-04-09T07:51:27.757Z,19.30
2023-04-09T07:53:54.545Z,18.50
2023-04-09T07:56:21.302Z,19.02
2023-04-09T07:58:49.248Z,19.13
2023-04-09T08:01:16.312Z,18.02
2023-04-09T08:03:43.535Z,16.98
2023-04-09T08:06:10.357Z,18.15
2023-04-09T08:08:37.522Z,15.25
2023-04-09T08:11:04.505Z,19.40
2023-04-09T08:13:31.171Z,16.60
2023-04-09T08:16:01.648Z,20.15
2023-04-09T08:18:29.193Z,15.65
2023-04-09T08:20:57.037Z,19.13
2023-04-09T08:23:23.744Z,14.90
2023-04-09T08:25:50.544Z,15.25
2023-04-09T08:28:17.265Z,16.35
2023-04-09T08:30:44.655Z,16.30
2023-04-09T08:33:11.518Z,21.35
2023-04-09T08:35:40.360Z,17.83
2023-04-09T08:38:07.206Z,15.48
2023-04-09T08:40:37.812Z,23.15
2023-04-09T08:43:06.952Z,17.70
2023-04-09T08:45:33.804Z,14.63
2023-04-09T08:48:03.885Z,14.52
2023-04-09T08:50:32.366Z,17.65
2023-04-09T08:53:02.177Z,13.75
2023-04-09T08:55:29.279Z,14.35
2023-04-09T08:57:56.411Z,14.63
2023-04-09T09:00:23.269Z,14.73
2023-04-09T09:03:11.731Z,12.45
2023-04-09T09:05:43.517Z,14.00
2023-04-09T09:08:22.462Z,12.27
2023-04-09T09:10:49.221Z,14.82
2023-04-09T09:13:26.581Z,15.10
2023-04-09T09:15:56.275Z,14.10
2023-04-09T09:18:42.896Z,14.85
2023-04-09T09:21:14.759Z,18.17
2023-04-09T09:23:42.699Z,15.70
2023-04-09T09:26:14.427Z,12.85
2023-04-09T09:28:41.801Z,13.80
2023-04-09T09:31:12.844Z,12.70
2023-04-09T09:33:40.553Z,11.80
2023-04-09T09:36:09.510Z,12.73
2023-04-09T09:38:54.326Z,15.75
2023-04-09T09:41:22.204Z,13.65
2023-04-09T09:43:49.170Z,13.05
2023-04-09T09:46:16.783Z,13.18
2023-04-09T09:48:46.273Z,16.92
2023-04-09T09:51:14.105Z,12.05
2023-04-09T09:53:43.934Z,12.20
2023-04-09T09:56:19.073Z,10.07
2023-04-09T09:58:53.214Z,15.27
2023-04-09T10:01:23.553Z,12.82
2023-04-09T10:03:51.799Z,13.95
2023-04-09T10:06:18.979Z,12.48
2023-04-09T10:08:48.889Z,14.50
2023-04-09T10:11:16.201Z,12.40
2023-04-09T10:13:51.205Z,15.77
2023-04-09T10:16:19.187Z,12.88
2023-04-09T10:18:46.061Z,13.95
2023-04-09T10:21:37.815Z,11.32
2023-04-09T10:24:07.830Z,14.85
2023-04-09T10:26:35.547Z,13.15
2023-04-09T10:29:08.043Z,13.98
2023-04-09T10:32:06.970Z,9.57
2023-04-09T10:34:40.016Z,15.38
2023-04-09T10:37:16.997Z,13.38
2023-04-09T10:39:48.997Z,10.10
2023-04-09T10:42:19.242Z,11.95
2023-04-09T10:44:46.072Z,11.82
2023-04-09T10:47:31.184Z,13.23
2023-04-09T10:49:57.903Z,11.97
2023-04-09T10:52:30.293Z,12.63
2023-04-09T10:54:57.274Z,16.42
2023-04-09T10:57:24.580Z,15.05
2023-04-09T10:59:55.373Z,11.05
2023-04-09T11:02:34.427Z,10.93
2023-04-09T11:05:33.031Z,12.57
2023-04-09T11:08:06.115Z,9.85
2023-04-09T11:10:37.423Z,11.10
2023-04-09T11:13:04.682Z,12.88
2023-04-09T11:15:34.431Z,13.60
2023-04-09T11:18:02.294Z,11.63
2023-04-09T11:20:31.122Z,10.45
2023-04-09T11:22:59.372Z,12.15
2023-04-09T11:25:27.730Z,9.27
2023-04-09T11:27:54.998Z,12.50
2023-04-09T11:30:22.011Z,10.68
2023-04-09T11:32:49.782Z,10.75
2023-04-09T11:35:22.212Z,10.57
2023-04-09T11:37:50.266Z,10.65
2023-04-09T11:40:23.500Z,9.32
2023-04-09T11:42:52.277Z,9.02
2023-04-09T11:45:21.094Z,8.45
2023-04-09T11:47:48.733Z,14.07
2023-04-09T11:50:16.580Z,11.38
2023-04-09T11:52:45.425Z,10.48
2023-04-09T11:55:13.092Z,10.88
2023-04-09T11:57:47.200Z,10.10
2023-04-09T12:00:15.563Z,7.30
2023-04-09T12:02:47.683Z,9.18
2023-04-09T12:05:23.374Z,10.73
2023-04-09T12:10:31.117Z,6.70
2023-04-09T12:13:06.665Z,7.45
2023-04-09T12:15:37.009Z,10.32
2023-04-09T12:18:04.407Z,13.10
2023-04-09T12:20:35.852Z,7.97
2023-04-09T12:23:04.580Z,7.40
2023-04-09T12:25:36.638Z,6.60
2023-04-09T12:28:04.369Z,7.63
2023-04-09T12:30:31.572Z,7.82
2023-04-09T12:32:58.744Z,8.80
2023-04-09T12:35:25.672Z,8.38
2023-04-09T12:37:52.713Z,7.18
2023-04-09T12:40:20.400Z,10.70
2023-04-09T12:42:48.216Z,9.55
2023-04-09T12:45:17.514Z,6.28
2023-04-09T12:47:44.976Z,6.35
2023-04-09T12:50:13.007Z,5.18
2023-04-09T12:52:39.854Z,4.82
2023-04-09T12:55:07.644Z,7.60
2023-04-09T12:57:34.877Z,5.35
2023-04-09T13:00:01.575Z,6.45
2023-04-09T13:02:28.502Z,4.95
2023-04-09T13:04:55.430Z,7.55
2023-04-09T13:07:22.864Z,5.95
2023-04-09T13:09:50.463Z,4.38
2023-04-09T13:12:17.798Z,6.47
2023-04-09T13:14:46.634Z,7.45
2023-04-09T13:17:13.776Z,5.47
2023-04-09T13:19:42.717Z,6.53
2023-04-09T13:22:10.670Z,7.15
2023-04-09T13:24:38.337Z,6.38
2023-04-09T13:27:06.192Z,8.80
2023-04-09T13:29:32.978Z,7.35
2023-04-09T13:32:01.783Z,5.60
2023-04-09T13:34:28.694Z,5.95
2023-04-09T13:36:55.373Z,9.23
2023-04-09T13:39:22.031Z,5.93
2023-04-09T13:41:48.846Z,9.82
2023-04-09T13:44:15.692Z,6.88
2023-04-09T13:46:42.459Z,6.82
2023-04-09T13:49:09.238Z,6.72
2023-04-09T13:51:36.059Z,5.35
2023-04-09T13:54:05.308Z,7.22
2023-04-09T13:56:32.818Z,4.20
2023-04-09T13:58:59.934Z,6.80
2023-04-09T14:01:27.983Z,5.90
2023-04-09T14:03:55.114Z,6.80
2023-04-09T14:06:22.304Z,6.50
2023-04-09T14:08:48.999Z,6.00
2023-04-09T14:11:16.883Z,5.97
2023-04-09T14:13:43.689Z,5.68
2023-04-09T14:16:11.097Z,5.97
2023-04-09T14:18:39.371Z,6.82
2023-04-09T14:21:08.713Z,7.65
2023-04-09T14:23:37.033Z,4.95
2023-04-09T14:26:04.947Z,6.38
2023-04-09T14:28:32.385Z,8.48
2023-04-09T14:31:00.747Z,7.03
2023-04-09T14:33:27.985Z,7.03
2023-04-09T14:35:55.160Z,8.20
2023-04-09T14:38:23.971Z,8.90
2023-04-09T14:40:51.444Z,8.13
2023-04-09T14:43:18.562Z,5.53
2023-04-09T14:45:45.288Z,7.57
2023-04-09T14:48:12.084Z,6.03
2023-04-09T14:50:38.907Z,6.40
2023-04-09T14:53:05.800Z,9.15
2023-04-09T14:55:32.554Z,6.50
2023-04-09T14:57:59.894Z,5.60
2023-04-09T15:00:26.699Z,6.15
2023-04-09T15:02:53.645Z,6.47
2023-04-09T15:05:20.780Z,7.30
2023-04-09T15:07:47.540Z,6.72
2023-04-09T15:10:14.989Z,7.15
2023-04-09T15:12:41.746Z,6.80
2023-04-09T15:15:09.470Z,7.05
2023-04-09T15:17:36.763Z,8.02
2023-04-09T15:20:04.198Z,6.20
2023-04-09T15:22:31.120Z,6.43
2023-04-09T15:24:57.891Z,10.07
2023-04-09T15:27:24.918Z,6.00
2023-04-09T15:29:52.060Z,5.45
2023-04-09T15:32:19.259Z,4.60
2023-04-09T15:34:46.166Z,5.70
2023-04-09T15:37:12.924Z,5.32
2023-04-09T15:39:39.702Z,5.32
2023-04-09T15:42:08.604Z,5.38
2023-04-09T15:44:36.360Z,8.27
2023-04-09T15:47:03.167Z,5.63
2023-04-09T15:49:30.158Z,4.95
2023-04-09T15:51:56.920Z,4.63
2023-04-09T15:54:23.693Z,6.95
2023-04-09T15:56:50.482Z,4.40
2023-04-09T15:59:18.843Z,7.75
2023-04-09T16:01:45.952Z,6.47
2023-04-09T16:04:12.891Z,4.85
2023-04-09T16:06:39.788Z,6.93
2023-04-09T16:09:06.527Z,6.05
2023-04-09T16:11:35.894Z,6.10
2023-04-09T16:14:02.687Z,7.72
2023-04-09T16:16:29.561Z,7.45
2023-04-09T16:18:56.372Z,8.70
2023-04-09T16:21:23.188Z,9.80
2023-04-09T16:23:49.853Z,5.85
2023-04-09T16:26:16.530Z,5.90
2023-04-09T16:28:43.242Z,5.38
2023-04-09T16:31:09.929Z,5.00
2023-04-09T16:33:36.722Z,6.65
2023-04-09T16:36:03.571Z,7.30
2023-04-09T16:38:31.198Z,5.75
2023-04-09T16:40:58.223Z,7.13
2023-04-09T16:43:25.366Z,7.28
2023-04-09T16:45:52.319Z,8.07
2023-04-09T16:48:19.272Z,5.18
2023-04-09T16:50:45.980Z,6.97
2023-04-09T16:53:12.908Z,7.32
2023-04-09T16:55:39.726Z,5.60
2023-04-09T16:58:06.696Z,9.25
2023-04-09T17:00:33.705Z,8.43
2023-04-09T17:03:00.880Z,5.90
2023-04-09T17:05:27.651Z,5.38
2023-04-09T17:07:54.421Z,5.60
2023-04-09T17:10:21.331Z,8.48
2023-04-09T17:12:48.418Z,6.80
2023-04-09T17:15:15.235Z,6.00
2023-04-09T17:17:43.691Z,7.85
2023-04-09T17:20:11.323Z,7.85
2023-04-09T17:22:39.233Z,6.28
2023-04-09T17:25:06.571Z,6.00
2023-04-09T17:27:33.445Z,5.90
2023-04-09T17:30:00.224Z,5.20
2023-04-09T17:32:27.726Z,5.10
2023-04-09T17:34:54.534Z,6.15
2023-04-09T17:37:21.654Z,5.65
2023-04-09T17:39:48.721Z,7.35
2023-04-09T17:42:15.502Z,5.88
2023-04-09T17:44:43.863Z,5.00
2023-04-09T17:47:12.506Z,6.30
2023-04-09T17:49:39.829Z,4.85
2023-04-09T17:52:06.589Z,9.95
2023-04-09T17:54:38.188Z,5.43
2023-04-09T17:57:07.082Z,5.43
2023-04-09T17:59:34.677Z,6.35
2023-04-09T18:02:02.276Z,5.47
2023-04-09T18:04:29.476Z,5.93
2023-04-09T18:06:56.674Z,7.13
2023-04-09T18:09:23.372Z,7.07
2023-04-09T18:11:54.862Z,5.78
2023-04-09T18:14:22.004Z,7.15
2023-04-09T18:16:49.101Z,6.18
2023-04-09T18:19:15.963Z,5.22
2023-04-09T18:21:42.641Z,7.78
2023-04-09T18:24:09.472Z,5.78
2023-04-09T18:26:36.732Z,7.10
2023-04-09T18:29:03.569Z,7.03
2023-04-09T18:31:30.585Z,5.47
2023-04-09T18:33:57.355Z,6.05
2023-04-09T18:36:24.272Z,6.07
2023-04-09T18:38:52.020Z,5.70
2023-04-09T18:41:26.629Z,7.28
2023-04-09T18:43:54.232Z,6.35
2023-04-09T18:46:20.963Z,8.43
2023-04-09T18:48:47.809Z,8.32
2023-04-09T18:51:14.799Z,5.55
2023-04-09T18:53:42.135Z,5.82
2023-04-09T18:56:09.352Z,7.63
2023-04-09T18:58:36.721Z,7.05
2023-04-09T19:01:12.891Z,7.53
2023-04-09T19:03:40.704Z,7.05
2023-04-09T19:06:12.973Z,6.93
2023-04-09T19:08:39.980Z,5.90
2023-04-09T19:11:07.873Z,8.68
2023-04-09T19:13:34.793Z,5.63
2023-04-09T19:16:02.178Z,6.00
2023-04-09T19:18:29.490Z,7.05
2023-04-09T19:20:56.433Z,7.80
2023-04-09T19:23:23.379Z,7.00
2023-04-09T19:25:55.380Z,6.65
2023-04-09T19:28:22.884Z,7.68
2023-04-09T19:30:53.711Z,5.43
2023-04-09T19:33:22.138Z,4.85
2023-04-09T19:35:49.580Z,5.75
2023-04-09T19:38:17.242Z,4.88
2023-04-09T19:40:44.450Z,5.55
2023-04-09T19:43:11.560Z,5.05
2023-04-09T19:45:39.290Z,7.35
2023-04-09T19:48:07.082Z,6.13
2023-04-09T19:50:38.260Z,6.68
2023-04-09T19:53:06.062Z,5.20
2023-04-09T19:55:35.934Z,5.45
2023-04-09T19:58:03.263Z,7.07
2023-04-09T20:00:30.550Z,6.25
2023-04-09T20:02:57.714Z,9.40
2023-04-09T20:05:25.022Z,10.40
2023-04-09T20:07:52.919Z,7.18
2023-04-09T20:10:20.387Z,5.00
2023-04-09T20:12:48.858Z,7.82
2023-04-09T20:15:17.556Z,8.15
2023-04-09T20:17:44.650Z,8.52
2023-04-09T20:20:12.167Z,8.60
2023-04-09T20:22:43.186Z,7.90
2023-04-09T20:25:11.974Z,8.52
2023-04-09T20:27:38.860Z,7.95
2023-04-09T20:30:07.017Z,7.10
2023-04-09T20:32:35.792Z,8.65
2023-04-09T20:35:02.565Z,7.93
2023-04-09T20:37:29.309Z,10.13
2023-04-09T20:39:56.329Z,7.65
2023-04-09T20:42:23.314Z,6.68
2023-04-09T20:44:49.965Z,8.13
2023-04-09T20:47:16.688Z,8.30
2023-04-09T20:49:43.495Z,8.60
2023-04-09T20:52:10.282Z,8.90
2023-04-09T20:54:37.102Z,10.90
2023-04-09T20:57:05.577Z,9.65
2023-04-09T20:59:32.835Z,7.90
2023-04-09T21:01:59.676Z,9.20
2023-04-09T21:04:26.593Z,8.10
2023-04-09T21:06:53.364Z,6.40
2023-04-09T21:09:20.092Z,7.25
2023-04-09T21:11:46.886Z,8.30
2023-04-09T21:14:14.588Z,9.73
2023-04-09T21:16:41.441Z,12.18
2023-04-09T21:19:08.198Z,8.27
2023-04-09T21:21:35.681Z,7.93
2023-04-09T21:24:03.902Z,8.60
2023-04-09T21:26:44.975Z,7.95
2023-04-09T21:29:15.725Z,7.60
2023-04-09T21:31:42.387Z,8.50
2023-04-09T21:34:09.174Z,6.65
2023-04-09T21:36:39.213Z,7.55
2023-04-09T21:39:06.022Z,8.50
2023-04-09T21:41:32.790Z,8.20
2023-04-09T21:44:05.157Z,10.30
2023-04-09T21:46:31.823Z,7.53
2023-04-09T21:48:58.514Z,8.45
2023-04-09T21:51:25.343Z,7.20
2023-04-09T21:53:52.084Z,12.52
2023-04-09T21:56:18.708Z,6.85
2023-04-09T21:58:45.641Z,8.73
2023-04-09T22:01:22.612Z,7.45
2023-04-09T22:03:55.156Z,8.07
2023-04-09T22:06:21.932Z,7.18
2023-04-09T22:08:55.570Z,12.25
2023-04-09T22:11:28.438Z,7.97
2023-04-09T22:13:57.049Z,7.30
2023-04-09T22:16:24.661Z,7.30
2023-04-09T22:18:52.674Z,7.32
2023-04-09T22:21:19.671Z,7.95
2023-04-09T22:23:46.447Z,6.82
2023-04-09T22:26:13.406Z,6.50
2023-04-09T22:28:40.282Z,7.50
2023-04-09T22:31:07.365Z,8.80
2023-04-09T22:33:34.120Z,9.40
2023-04-09T22:36:00.866Z,6.57
2023-04-09T22:38:27.718Z,9.02
2023-04-09T22:40:54.562Z,8.77
2023-04-09T22:43:21.336Z,8.65
2023-04-09T22:45:52.299Z,7.07
2023-04-09T22:48:20.428Z,6.03
2023-04-09T22:50:48.686Z,8.25
2023-04-09T22:53:19.319Z,6.80
2023-04-09T22:55:51.325Z,5.93
2023-04-09T22:58:18.731Z,5.78
2023-04-09T23:00:46.984Z,6.82
2023-04-09T23:03:14.083Z,6.00
2023-04-09T23:05:41.247Z,6.78
2023-04-09T23:08:07.985Z,6.75
2023-04-09T23:10:35.483Z,6.45
2023-04-09T23:13:02.325Z,6.68
2023-04-09T23:15:29.014Z,6.07
2023-04-09T23:17:56.255Z,6.35
2023-04-09T23:20:23.348Z,10.32
2023-04-09T23:22:50.421Z,7.07
2023-04-09T23:25:17.585Z,5.28
2023-04-09T23:27:44.779Z,6.57
2023-04-09T23:30:16.594Z,6.82
2023-04-09T23:32:46.866Z,6.45
2023-04-09T23:35:13.990Z,8.43
2023-04-09T23:37:42.420Z,6.03
2023-04-09T23:40:10.526Z,8.80
2023-04-09T23:42:37.230Z,7.47
2023-04-09T23:45:05.660Z,6.22
2023-04-09T23:47:34.262Z,6.20
2023-04-09T23:50:04.910Z,5.78
2023-04-09T23:52:37.057Z,5.28
2023-04-09T23:55:05.311Z,5.03
2023-04-09T23:57:32.101Z,6.22
2023-04-09T23:59:58.931Z,7.55
